• Join FlightAware (Why Join?)
  • Login
  • US Flag 
02:49AM EST


 

Airport Tracker/Info


-or-


 

Live Flight TrackerFlight Track Log ✈ TAM3095 ✈ 02-Jul-2013 ✈ SBVT / VIX - SBGL / GIG

Flight Track Log - Related Links

Times and Time Zones

All times are in EDT time to prevent confusion due to time zone crossing. See the TAM3095 flight status page for this flight to view local times or setup timezone preferences in your user account.

Time Position Orientation Groundspeed Altitude Reporting Facility
EDT Latitude Longitude Course Direction KTS MPH feet Rate Location/Type
08:17PM -20.2740 -40.2970 207° Southwest 143 165 800  Level FlightAware
08:17PM -20.2820 -40.3000 199° South 137 158 1,500 3,060 Climbing FlightAware
08:17PM -20.3000 -40.3060 197° South 130 150 3,000 2,340 Climbing FlightAware
08:18PM -20.3150 -40.3120 201° Southwest 159 183 3,700 1,500 Climbing FlightAware
08:18PM -20.3390 -40.3220 201° Southwest 202 232 4,400 2,100 Climbing FlightAware
08:19PM -20.3630 -40.3320 201° Southwest 226 260 5,600 3,060 Climbing FlightAware
08:19PM -20.4090 -40.3530 203° Southwest 244 281 8,100 2,880 Climbing FlightAware
08:20PM -20.4350 -40.3640 202° Southwest 261 300 9,100 2,040 Climbing FlightAware
08:20PM -20.4740 -40.3810 202° Southwest 303 349 10,000 1,860 Climbing FlightAware
08:21PM -20.5340 -40.4070 202° Southwest 347 399 11,400 2,220 Climbing FlightAware
08:22PM -20.5970 -40.4350 203° Southwest 365 420 13,200 2,880 Climbing FlightAware
08:22PM -20.6580 -40.4610 202° Southwest 362 417 15,300 3,300 Climbing FlightAware
08:23PM -20.7240 -40.4900 202° Southwest 357 411 17,600 3,060 Climbing FlightAware
08:24PM -20.7970 -40.5220 202° Southwest 355 409 19,900 2,880 Climbing FlightAware
08:24PM -20.8580 -40.5480 202° Southwest 350 403 21,900 2,520 Climbing FlightAware
08:25PM -20.9080 -40.5920 219° Southwest 344 396 23,400 2,580 Climbing FlightAware
08:26PM -20.9470 -40.6340 225° Southwest 335 386 25,200 2,520 Climbing FlightAware
08:26PM -20.9970 -40.6860 224° Southwest 342 394 26,700 1,620 Climbing FlightAware
08:27PM -21.0360 -40.7270 224° Southwest 355 409 27,400 1,560 Climbing FlightAware
08:28PM -21.0940 -40.7880 224° Southwest 362 417 28,900 1,860 Climbing FlightAware
08:28PM -21.1300 -40.8260 225° Southwest 363 418 29,800 900 Climbing FlightAware
08:29PM -21.1810 -40.8790 224° Southwest 358 412 30,000 120 Climbing FlightAware
08:30PM -21.2380 -40.9390 224° Southwest 368 423 30,000  Level FlightAware
08:30PM -21.2820 -40.9850 224° Southwest 369 425 30,000  Level FlightAware
08:31PM -21.3440 -41.0510 225° Southwest 371 427 30,000  Level FlightAware
08:32PM -21.3920 -41.1010 224° Southwest 371 427 30,000  Level FlightAware
08:33PM -21.4460 -41.1570 224° Southwest 371 427 30,000  Level FlightAware
08:33PM -21.5020 -41.2170 225° Southwest 371 427 30,000  Level FlightAware
08:34PM -21.5710 -41.2900 225° Southwest 371 427 30,000  Level FlightAware
08:35PM -21.6180 -41.3400 225° Southwest 373 429 30,000  Level FlightAware
08:36PM -21.6660 -41.3910 225° Southwest 377 434 30,000  Level FlightAware
08:37PM -21.7280 -41.4560 224° Southwest 381 438 30,000 -420 Level FlightAware
08:37PM -21.7800 -41.5120 225° Southwest 372 428 29,400 -2,160 Descending FlightAware
08:38PM -21.8440 -41.5800 225° Southwest 390 449 26,600 -2,100 Descending FlightAware
08:39PM -21.9040 -41.6440 225° Southwest 374 430 26,000 -480 Descending FlightAware
08:39PM -21.9550 -41.6980 224° Southwest 376 433 26,000  Level FlightAware
08:40PM -22.0090 -41.7560 225° Southwest 375 432 26,000  Level FlightAware
08:41PM -22.0570 -41.8070 225° Southwest 376 433 26,000  Level FlightAware
08:42PM -22.1140 -41.8680 225° Southwest 376 433 26,000  Level FlightAware
08:42PM -22.1530 -41.9100 225° Southwest 376 433 26,000  Level FlightAware
08:43PM -22.2050 -41.9660 225° Southwest 376 433 26,000  Level FlightAware
08:44PM -22.2610 -42.0260 225° Southwest 376 433 26,000  Level FlightAware
08:44PM -22.3010 -42.0690 225° Southwest 376 433 26,000  Level FlightAware
08:45PM -22.3540 -42.1250 224° Southwest 376 433 26,000  Level FlightAware
08:46PM -22.4060 -42.1840 226° Southwest 376 433 26,000  Level FlightAware
08:46PM -22.4540 -42.2450 230° Southwest 375 432 26,000  Level FlightAware
08:47PM -22.5010 -42.3070 231° Southwest 377 434 26,000  Level FlightAware
08:48PM -22.5280 -42.3750 247° West 380 437 26,000  Level FlightAware
08:48PM -22.5570 -42.4490 247° West 379 436 26,000  Level FlightAware
08:49PM -22.5850 -42.5220 247° West 380 437 26,000  Level FlightAware
08:50PM -22.6160 -42.6000 247° West 381 438 26,000 -1,020 Level FlightAware
08:51PM -22.6450 -42.6750 247° West 390 449 24,600 -2,160 Descending FlightAware
08:51PM -22.6740 -42.7500 247° West 382 440 23,000 -2,280 Descending FlightAware
08:52PM -22.7010 -42.8190 247° West 375 432 21,500 -2,100 Descending FlightAware
08:53PM -22.7040 -42.9030 268° West 369 425 20,000 -1,740 Descending FlightAware
08:53PM -22.6890 -42.9590 286° West 355 409 19,300 -1,380 Descending FlightAware
08:54PM -22.6710 -43.0290 286° West 345 397 18,300 -1,560 Descending FlightAware
08:55PM -22.6530 -43.1010 285° West 336 387 17,100 -2,340 Descending FlightAware
08:55PM -22.6360 -43.1690 285° West 359 413 15,100 -2,820 Descending FlightAware
08:56PM -22.6160 -43.2430 286° West 359 413 13,300 -2,520 Descending FlightAware
08:57PM -22.5970 -43.3170 286° West 355 409 11,500 -2,100 Descending FlightAware
08:57PM -22.5870 -43.3570 285° West 357 411 10,600 -1,140 Descending FlightAware
08:58PM -22.5720 -43.4220 284° West 318 366 10,000 -960 Descending FlightAware
08:58PM -22.5650 -43.4520 284° West 294 338 9,600 -1,860 Descending FlightAware
08:59PM -22.5500 -43.5130 285° West 275 316 8,100 -1,620 Descending FlightAware
09:00PM -22.5410 -43.5490 285° West 277 319 7,700 -600 Descending FlightAware
09:00PM -22.5390 -43.5660 277° West 281 323 7,700 -480 Level FlightAware
09:01PM -22.5800 -43.6060 222° Southwest 283 326 7,300 -840 Descending FlightAware
09:01PM -22.6510 -43.6030 178° South 293 337 6,500 -1,080 Descending FlightAware
09:01PM -22.6590 -43.5890 122° Southeast 285 328 6,400 -1,380 Descending FlightAware
09:02PM -22.6790 -43.5530 121° Southeast 281 323 5,600 -1,620 Descending FlightAware
09:03PM -22.6980 -43.5200 122° Southeast 269 310 4,600 -1,200 Descending FlightAware
09:03PM -22.7190 -43.4750 117° Southeast 225 259 4,200 -900 Descending FlightAware
09:03PM -22.7190 -43.4640 90° East 205 236 4,000 -900 Descending FlightAware
09:04PM -22.7230 -43.4100 95° East 180 207 3,000 -900 Descending FlightAware
09:05PM -22.7270 -43.3950 106° East 168 193 2,700 -1,020 Descending FlightAware
09:05PM -22.7390 -43.3750 123° Southeast 147 169 2,200 -1,080 Descending FlightAware
09:05PM -22.7430 -43.3690 126° Southeast 145 167 2,000 -780 Descending FlightAware
09:06PM -22.7540 -43.3520 125° Southeast 126 145 1,700 -660 Descending FlightAware
09:06PM -22.7630 -43.3390 127° Southeast 122 140 1,400 -660 Descending FlightAware
09:07PM -22.7700 -43.3270 122° Southeast 123 142 1,200 -540 Descending FlightAware
09:07PM -22.7780 -43.3150 126° Southeast 124 143 900 -840 Descending FlightAware
09:08PM -22.7930 -43.2920 125° Southeast 125 144 400 -900 Descending FlightAware
09:08PM -22.8020 -43.2790 127° Southeast 127 146 100 -720 Descending FlightAware
09:09PM -22.8100 -43.2680 128° Southeast 129 148 -240 Descending FlightAware
09:09PM -22.8170 -43.2570 125° Southeast 129 148  Level FlightAware
09:10PM -22.8200 -43.2510 118° Southeast 129 148  Level FlightAware
09:10PM -22.8200 -43.2490 90° East 129 148  Level FlightAware
09:11PM -22.8200 -43.2500 270° West 129 148  Level FlightAware
09:11PM -22.8240 -43.2360 107° East 129 148  Level FlightAware
09:13PM -22.8150 -43.2510 303° West  Level FlightAware
09:14PM -22.8150 -43.2490 90° East  Level FlightAware
09:14PM -22.8150 -43.2480 90° East  Level FlightAware
09:17PM -22.8089 -43.2436 33° Northeast  Level Estimated